Ann Arbor, MI (48109)

9:06 AM EDT on October 31, 2014 (GMT -0400)
Leslie Park Golf Course | Change Station
CLOSE
Current Station
Personal Weather Station
Location: Ann Arbor, MI
Elevation: 906 ft
Nearby Weather Stations

Elev 906 ft 42.31 °N, 83.72 °W | Updated 16 seconds ago

Rain
Rain
43.0 °F
Feels Like 43 °F
N
0.0
Wind Variable Wind from SW
Gusts 0.0 mph

Today
High -- | Low -- °F
--% Chance of Precip.
Yesterday
High -- | Low -- °F
Precip. -- in
8:06 AM 6:29 PM
First Quarter, 55% visible
Pressure 29.91 in
Visibility 4.0 miles
Clouds Scattered Clouds 1700 ft
Mostly Cloudy 2200 ft
Overcast 3800 ft
Windchill 43 °F
Dew Point 41 °F
Humidity 93%
Rainfall 0.05 in
Snow Depth Not available.
UV 0 out of 12
Pollen .10 out of 12
Air Quality Not available.
Flu Activity Not available.
METAR KARB 311253Z AUTO 25004KT 4SM -RA BR SCT017 BKN022 OVC038 06/03 A2989 RMK AO2 SLP126 P0002 T00560033

More Conditions Fewer Conditions

Pressure 29.91 in
Visibility 4.0 miles
Clouds Scattered Clouds 1700 ft
Mostly Cloudy 2200 ft
Overcast 3800 ft
Windchill 43 °F
Dew Point 41 °F
Humidity 93%
Rainfall 0.05 in
Snow Depth Not available.
UV 0 out of 12
Pollen .10 out of 12
Air Quality Not available.
Flu Activity Not available.
METAR KARB 311253Z AUTO 25004KT 4SM -RA BR SCT017 BKN022 OVC038 06/03 A2989 RMK AO2 SLP126 P0002 T00560033

More Conditions Fewer Conditions

10-Day Weather Forecast

Almanac

Astronomy

Oct. 31, 2014 Rise Set
Actual Time
Civil Twilight
Nautical Twilight
Astronomical Twilight
Moon
Length of Visible Light
Length of Day
Tomorrow will be .
, % of the Moon is Illuminated

Today's Extremes

State Highs State Lows

Community

WunderPhotos

Upload Photos

1,766,601 photos uploaded!

WunderBlogs® & News

Nearby

Air Quality

  Air Quality AQ Index Pollutant
Not available.

Snow Depth

Station Depth Elevation

Earthquake Activity

City Distance Mag. Time & Date
Minimum magnitude displayed is 2.5.

Coastal Water Temperatures

Place Temperature

Nearby Weather Stations